createdAt,value
2022-12-01T00:01:14.052Z,1.00
2022-12-01T00:03:41.282Z,1.00
2022-12-01T00:06:15.941Z,1.00
2022-12-01T00:09:02.960Z,1.00
2022-12-01T00:11:30.211Z,1.00
2022-12-01T00:13:57.092Z,1.00
2022-12-01T00:16:24.068Z,1.00
2022-12-01T00:18:52.528Z,1.00
2022-12-01T00:21:21.491Z,1.00
2022-12-01T00:23:51.030Z,1.00
2022-12-01T00:26:19.685Z,1.00
2022-12-01T00:28:58.050Z,1.00
2022-12-01T00:31:25.999Z,1.00
2022-12-01T00:33:53.025Z,1.00
2022-12-01T00:36:20.153Z,1.00
2022-12-01T00:38:46.992Z,1.00
2022-12-01T00:41:14.026Z,1.00
2022-12-01T00:43:41.125Z,1.00
2022-12-01T00:46:08.709Z,1.00
2022-12-01T00:48:35.597Z,1.00
2022-12-01T00:51:03.164Z,1.00
2022-12-01T00:53:30.046Z,1.00
2022-12-01T00:55:56.894Z,1.00
2022-12-01T00:58:25.050Z,1.00
2022-12-01T01:01:00.067Z,1.00
2022-12-01T01:03:27.613Z,1.00
2022-12-01T01:05:54.496Z,1.00
2022-12-01T01:08:21.337Z,1.00
2022-12-01T01:10:48.861Z,1.00
2022-12-01T01:13:16.386Z,1.00
2022-12-01T01:15:43.232Z,99.90
2022-12-01T01:18:12.100Z,99.90
2022-12-01T01:20:39.132Z,99.90
2022-12-01T01:23:05.965Z,1.00
2022-12-01T01:25:33.671Z,99.90
2022-12-01T01:28:00.519Z,1.00
2022-12-01T01:30:27.554Z,99.90
2022-12-01T01:32:54.431Z,99.90
2022-12-01T01:35:21.362Z,99.90
2022-12-01T01:37:50.031Z,99.90
2022-12-01T01:40:17.089Z,99.90
2022-12-01T01:42:43.916Z,1.00
2022-12-01T01:45:30.029Z,99.90
2022-12-01T01:47:59.846Z,99.90
2022-12-01T01:50:28.695Z,99.90
2022-12-01T01:53:02.673Z,99.90
2022-12-01T01:55:31.898Z,99.90
2022-12-01T01:57:59.366Z,99.90
2022-12-01T02:00:26.356Z,99.90
2022-12-01T02:02:53.732Z,99.90
2022-12-01T02:05:27.647Z,99.90
2022-12-01T02:07:57.265Z,99.90
2022-12-01T02:10:44.737Z,99.90
2022-12-01T02:13:20.798Z,99.90
2022-12-01T02:15:56.529Z,99.90
2022-12-01T02:18:49.175Z,99.90
2022-12-01T02:21:19.105Z,99.90
2022-12-01T02:23:45.831Z,99.90
2022-12-01T02:26:46.503Z,99.90
2022-12-01T02:29:22.362Z,99.90
2022-12-01T02:32:18.812Z,99.90
2022-12-01T02:35:07.764Z,99.90
2022-12-01T02:37:42.091Z,99.90
2022-12-01T02:40:14.907Z,99.90
2022-12-01T02:43:06.346Z,99.90
2022-12-01T02:45:48.194Z,99.90
2022-12-01T02:48:22.503Z,99.90
2022-12-01T02:50:52.091Z,99.90
2022-12-01T02:53:19.652Z,99.90
2022-12-01T02:55:54.640Z,99.90
2022-12-01T02:58:22.101Z,99.90
2022-12-01T03:01:07.430Z,99.90
2022-12-01T03:03:52.951Z,99.90
2022-12-01T03:06:30.602Z,99.90
2022-12-01T03:09:24.924Z,99.90
2022-12-01T03:12:15.635Z,99.90
2022-12-01T03:15:09.904Z,99.90
2022-12-01T03:17:59.770Z,99.90
2022-12-01T03:21:07.759Z,99.90
2022-12-01T03:23:48.546Z,99.90
2022-12-01T03:26:19.566Z,99.90
2022-12-01T03:28:54.030Z,99.90
2022-12-01T03:31:29.050Z,99.90
2022-12-01T03:34:00.966Z,99.90
2022-12-01T03:36:43.558Z,99.90
2022-12-01T03:39:16.153Z,99.90
2022-12-01T03:41:47.632Z,99.90
2022-12-01T03:44:29.359Z,99.90
2022-12-01T03:47:06.832Z,99.90
2022-12-01T03:49:35.672Z,99.90
2022-12-01T03:52:19.779Z,99.90
2022-12-01T03:55:09.137Z,99.90
2022-12-01T03:58:00.180Z,99.90
2022-12-01T04:00:27.294Z,99.90
2022-12-01T04:02:56.727Z,99.90
2022-12-01T04:05:25.486Z,99.90
2022-12-01T04:07:52.837Z,99.90
2022-12-01T04:10:19.785Z,99.90
2022-12-01T04:12:46.608Z,99.90
2022-12-01T04:15:14.464Z,99.90
2022-12-01T04:17:45.093Z,99.90
2022-12-01T04:20:14.378Z,99.90
2022-12-01T04:22:41.641Z,99.90
2022-12-01T04:25:09.117Z,99.90
2022-12-01T04:27:36.552Z,99.90
2022-12-01T04:30:07.693Z,99.90
2022-12-01T04:32:42.385Z,99.90
2022-12-01T04:35:11.617Z,99.90
2022-12-01T04:37:39.429Z,99.90
2022-12-01T04:40:07.071Z,99.90
2022-12-01T04:42:33.942Z,99.90
2022-12-01T04:45:00.771Z,99.90
2022-12-01T04:47:27.677Z,99.90
2022-12-01T04:49:54.588Z,99.90
2022-12-01T04:52:21.457Z,99.90
2022-12-01T04:54:48.270Z,99.90
2022-12-01T04:57:15.093Z,99.90
2022-12-01T04:59:41.923Z,99.90
2022-12-01T05:02:08.793Z,99.90
2022-12-01T05:04:38.656Z,99.90
2022-12-01T05:07:05.591Z,99.90
2022-12-01T05:09:32.468Z,99.90
2022-12-01T05:11:59.296Z,99.90
2022-12-01T05:14:26.231Z,99.90
2022-12-01T05:16:54.419Z,99.90
2022-12-01T05:19:39.814Z,99.90
2022-12-01T05:22:06.609Z,99.90
2022-12-01T05:24:33.395Z,99.90
2022-12-01T05:27:00.162Z,99.90
2022-12-01T05:29:27.065Z,99.90
2022-12-01T05:31:53.923Z,99.90
2022-12-01T05:34:20.879Z,99.90
2022-12-01T05:36:47.670Z,99.90
2022-12-01T05:39:14.530Z,99.90
2022-12-01T05:41:41.391Z,99.90
2022-12-01T05:44:08.176Z,99.90
2022-12-01T05:46:35.063Z,99.90
2022-12-01T05:49:02.129Z,99.90
2022-12-01T05:51:28.924Z,99.90
2022-12-01T05:53:56.041Z,99.90
2022-12-01T05:56:22.977Z,99.90
2022-12-01T05:58:49.919Z,99.90
2022-12-01T06:01:17.051Z,99.90
2022-12-01T06:03:43.951Z,99.90
2022-12-01T06:06:10.976Z,99.90
2022-12-01T06:08:37.791Z,99.90
2022-12-01T06:11:04.673Z,99.90
2022-12-01T06:13:31.453Z,99.90
2022-12-01T06:16:04.039Z,99.90
2022-12-01T06:18:32.845Z,99.90
2022-12-01T06:20:59.686Z,99.90
2022-12-01T06:23:30.410Z,99.90
2022-12-01T06:25:58.395Z,99.90
2022-12-01T06:28:25.249Z,99.90
2022-12-01T06:30:54.502Z,99.90
2022-12-01T06:33:24.808Z,99.90
2022-12-01T06:35:59.038Z,99.90
2022-12-01T06:38:25.935Z,99.90
2022-12-01T06:40:52.769Z,99.90
2022-12-01T06:43:19.620Z,99.90
2022-12-01T06:45:46.509Z,99.90
2022-12-01T06:48:13.371Z,99.90
2022-12-01T06:50:40.436Z,99.90
2022-12-01T06:53:07.301Z,99.90
2022-12-01T06:55:34.167Z,99.90
2022-12-01T06:58:01.203Z,99.90
2022-12-01T07:00:28.756Z,99.90
2022-12-01T07:02:55.691Z,99.90
2022-12-01T07:05:23.199Z,99.90
2022-12-01T07:07:52.721Z,99.90
2022-12-01T07:10:23.229Z,99.90
2022-12-01T07:12:50.079Z,99.90
2022-12-01T07:15:17.022Z,99.90
2022-12-01T07:17:43.828Z,99.90
2022-12-01T07:20:11.342Z,99.90
2022-12-01T07:22:39.623Z,99.90
2022-12-01T07:25:07.211Z,99.90
2022-12-01T07:27:34.018Z,99.90
2022-12-01T07:30:00.993Z,99.90
2022-12-01T07:32:27.869Z,99.90
2022-12-01T07:34:54.782Z,99.90
2022-12-01T07:37:21.644Z,99.90
2022-12-01T07:39:48.653Z,99.90
2022-12-01T07:42:15.626Z,99.90
2022-12-01T07:44:42.457Z,99.90
2022-12-01T07:47:09.250Z,99.90
2022-12-01T07:49:36.035Z,99.90
2022-12-01T07:52:02.860Z,99.90
2022-12-01T07:54:29.711Z,99.90
2022-12-01T07:56:56.565Z,99.90
2022-12-01T07:59:23.420Z,99.90
2022-12-01T08:01:50.277Z,99.90
2022-12-01T08:04:17.088Z,99.90
2022-12-01T08:06:43.922Z,99.90
2022-12-01T08:09:10.781Z,99.90
2022-12-01T08:11:37.652Z,99.90
2022-12-01T08:14:04.555Z,99.90
2022-12-01T08:16:31.521Z,99.90
2022-12-01T08:18:58.437Z,99.90
2022-12-01T08:21:25.352Z,99.90
2022-12-01T08:23:54.640Z,99.90
2022-12-01T08:26:22.617Z,99.90
2022-12-01T08:28:49.565Z,99.90
2022-12-01T08:31:21.701Z,99.90
2022-12-01T08:33:50.580Z,99.90
2022-12-01T08:36:18.233Z,99.90
2022-12-01T08:38:46.093Z,99.90
2022-12-01T08:41:13.781Z,99.90
2022-12-01T08:43:57.115Z,99.90
2022-12-01T08:46:26.250Z,99.90
2022-12-01T08:48:55.010Z,99.90
2022-12-01T08:51:22.011Z,99.90
2022-12-01T08:53:49.700Z,99.90
2022-12-01T08:56:22.880Z,99.90
2022-12-01T08:58:51.077Z,99.90
2022-12-01T09:01:20.975Z,99.90
2022-12-01T09:03:48.267Z,99.90
2022-12-01T09:06:20.711Z,99.90
2022-12-01T09:08:48.075Z,99.90
2022-12-01T09:11:18.828Z,99.90
2022-12-01T09:13:51.374Z,99.90
2022-12-01T09:16:21.366Z,99.90
2022-12-01T09:18:48.698Z,99.90
2022-12-01T09:21:15.457Z,99.90
2022-12-01T09:23:42.651Z,99.90
2022-12-01T09:26:13.628Z,99.90
2022-12-01T09:28:41.321Z,99.90
2022-12-01T09:31:10.563Z,99.90
2022-12-01T09:33:38.093Z,99.90
2022-12-01T09:36:06.449Z,99.90
2022-12-01T09:38:35.337Z,99.90
2022-12-01T09:41:09.293Z,99.90
2022-12-01T09:43:45.905Z,99.90
2022-12-01T09:46:20.236Z,99.90
2022-12-01T09:48:49.687Z,99.90
2022-12-01T09:51:21.434Z,99.90
2022-12-01T09:53:51.254Z,99.90
2022-12-01T09:56:22.179Z,99.90
2022-12-01T09:59:01.187Z,99.90
2022-12-01T10:01:41.723Z,99.90
2022-12-01T10:04:15.130Z,99.90
2022-12-01T10:06:50.285Z,99.90
2022-12-01T10:09:29.825Z,99.90
2022-12-01T10:12:04.402Z,99.90
2022-12-01T10:14:37.577Z,99.90
2022-12-01T10:17:16.874Z,99.90
2022-12-01T10:20:13.235Z,99.90
2022-12-01T10:22:46.004Z,99.90
2022-12-01T10:25:15.769Z,99.90
2022-12-01T10:27:42.532Z,99.90
2022-12-01T10:30:12.366Z,99.90
2022-12-01T10:32:45.741Z,99.90
2022-12-01T10:35:22.211Z,99.90
2022-12-01T10:37:55.289Z,99.90
2022-12-01T10:40:23.189Z,99.90
2022-12-01T10:42:51.148Z,99.90
2022-12-01T10:45:24.598Z,99.90
2022-12-01T10:48:20.821Z,99.90
2022-12-01T10:50:49.168Z,99.90
2022-12-01T10:53:36.592Z,99.90
2022-12-01T10:56:10.262Z,99.90
2022-12-01T10:59:04.982Z,99.90
2022-12-01T11:01:35.792Z,99.90
2022-12-01T11:04:02.872Z,99.90
2022-12-01T11:06:31.177Z,99.90
2022-12-01T11:09:26.615Z,99.90
2022-12-01T11:12:02.532Z,99.90
2022-12-01T11:14:53.633Z,99.90
2022-12-01T11:17:49.317Z,99.90
2022-12-01T11:20:37.502Z,99.90
2022-12-01T11:23:21.694Z,99.90
2022-12-01T11:26:25.633Z,99.90
2022-12-01T11:28:55.201Z,99.90
2022-12-01T11:31:27.748Z,99.90
2022-12-01T11:33:56.256Z,99.90
2022-12-01T11:36:32.952Z,99.90
2022-12-01T11:39:01.728Z,99.90
2022-12-01T11:41:40.714Z,99.90
2022-12-01T11:47:23.092Z,99.90
2022-12-01T11:50:03.363Z,99.90
2022-12-01T11:52:36.693Z,99.90
2022-12-01T11:55:30.787Z,99.90
2022-12-01T11:58:03.692Z,99.90
2022-12-01T12:00:56.091Z,99.90
2022-12-01T12:03:50.383Z,99.90
2022-12-01T12:06:39.894Z,99.90
2022-12-01T12:09:16.275Z,99.90
2022-12-01T12:12:06.305Z,99.90
2022-12-01T12:14:36.110Z,99.90
2022-12-01T12:17:16.212Z,99.90
2022-12-01T12:20:10.282Z,99.90
2022-12-01T12:23:14.499Z,99.90
2022-12-01T12:25:56.281Z,99.90
2022-12-01T12:28:23.107Z,99.90
2022-12-01T12:31:10.340Z,99.90
2022-12-01T12:34:16.195Z,99.90
2022-12-01T12:36:58.998Z,99.90
2022-12-01T12:39:32.007Z,99.90
2022-12-01T12:41:59.040Z,99.90
2022-12-01T12:44:49.476Z,99.90
2022-12-01T12:47:19.358Z,99.90
2022-12-01T12:50:33.532Z,99.90
2022-12-01T12:53:05.801Z,99.90
2022-12-01T12:55:49.718Z,99.90
2022-12-01T12:58:27.517Z,99.90
2022-12-01T13:01:01.395Z,99.90
2022-12-01T13:04:02.158Z,99.90
2022-12-01T13:06:41.650Z,99.90
2022-12-01T13:09:13.384Z,99.90
2022-12-01T13:12:00.519Z,99.90
2022-12-01T13:14:42.865Z,99.90
2022-12-01T13:17:28.132Z,99.90
2022-12-01T13:19:54.911Z,99.90
2022-12-01T13:22:27.632Z,99.90
2022-12-01T13:24:54.466Z,95.00
2022-12-01T13:27:25.185Z,98.70
2022-12-01T13:29:54.223Z,99.90
2022-12-01T13:32:35.743Z,99.90
2022-12-01T13:35:07.270Z,99.90
2022-12-01T13:37:37.876Z,99.90
2022-12-01T13:40:29.701Z,99.90
2022-12-01T13:43:08.909Z,99.90
2022-12-01T13:45:40.073Z,99.90
2022-12-01T13:48:29.881Z,99.90
2022-12-01T13:51:01.067Z,99.90
2022-12-01T13:53:36.949Z,96.00
2022-12-01T13:56:03.769Z,99.90
2022-12-01T13:58:33.584Z,99.90
2022-12-01T14:01:35.056Z,99.90
2022-12-01T14:04:11.039Z,97.00
2022-12-01T14:06:49.293Z,98.10
2022-12-01T14:09:25.391Z,88.10
2022-12-01T14:12:04.868Z,93.70
2022-12-01T14:14:38.180Z,99.90
2022-12-01T14:17:05.898Z,99.90
2022-12-01T14:19:52.389Z,99.90
2022-12-01T14:22:37.044Z,99.90
2022-12-01T14:25:20.237Z,99.90
2022-12-01T14:27:49.804Z,99.90
2022-12-01T14:30:47.541Z,99.90
2022-12-01T14:33:42.376Z,99.90
2022-12-01T14:36:24.311Z,99.90
2022-12-01T14:39:22.708Z,99.90
2022-12-01T14:41:58.588Z,99.90
2022-12-01T14:44:41.570Z,99.90
2022-12-01T14:47:11.394Z,99.90
2022-12-01T14:49:40.807Z,99.90
2022-12-01T14:52:30.775Z,99.90
2022-12-01T14:55:01.953Z,99.90
2022-12-01T14:57:34.248Z,99.90
2022-12-01T15:00:07.868Z,99.90
2022-12-01T15:02:39.786Z,99.90
2022-12-01T15:05:09.527Z,99.90
2022-12-01T15:07:42.008Z,99.90
2022-12-01T15:10:35.486Z,99.90
2022-12-01T15:13:30.521Z,99.90
2022-12-01T15:16:05.801Z,99.90
2022-12-01T15:18:37.033Z,99.90
2022-12-01T15:21:09.550Z,99.90
2022-12-01T15:23:36.786Z,99.90
2022-12-01T15:26:04.161Z,99.90
2022-12-01T15:28:36.073Z,99.90
2022-12-01T15:31:11.277Z,99.90
2022-12-01T15:33:43.979Z,99.90
2022-12-01T15:36:10.931Z,99.90
2022-12-01T15:38:38.786Z,99.90
2022-12-01T15:41:28.634Z,99.90
2022-12-01T15:44:00.675Z,99.90
2022-12-01T15:46:30.494Z,99.90
2022-12-01T15:49:21.132Z,99.90
2022-12-01T15:51:49.999Z,99.90
2022-12-01T15:54:26.389Z,99.90
2022-12-01T15:56:59.071Z,99.90
2022-12-01T15:59:31.198Z,99.90
2022-12-01T16:01:58.525Z,99.90
2022-12-01T16:04:26.757Z,99.90
2022-12-01T16:07:00.517Z,99.90
2022-12-01T16:09:39.276Z,99.90
2022-12-01T16:12:16.448Z,99.90
2022-12-01T16:14:49.756Z,99.90
2022-12-01T16:17:17.318Z,99.90
2022-12-01T16:19:45.506Z,99.90
2022-12-01T16:22:12.344Z,99.90
2022-12-01T16:24:54.591Z,99.90
2022-12-01T16:27:27.243Z,99.90
2022-12-01T16:29:57.254Z,99.90
2022-12-01T16:32:42.545Z,99.90
2022-12-01T16:35:23.307Z,99.90
2022-12-01T16:37:50.134Z,99.90
2022-12-01T16:40:17.278Z,99.90
2022-12-01T16:42:44.158Z,99.90
2022-12-01T16:45:15.604Z,99.90
2022-12-01T16:47:43.628Z,99.90
2022-12-01T16:50:14.909Z,99.90
2022-12-01T16:52:44.938Z,99.90
2022-12-01T16:55:22.195Z,99.90
2022-12-01T16:57:48.976Z,99.90
2022-12-01T17:00:16.228Z,99.90
2022-12-01T17:02:43.208Z,99.90
2022-12-01T17:05:11.409Z,99.90
2022-12-01T17:07:38.527Z,99.90
2022-12-01T17:10:06.126Z,99.90
2022-12-01T17:12:32.923Z,99.90
2022-12-01T17:14:59.813Z,99.90
2022-12-01T17:17:27.768Z,99.90
2022-12-01T17:19:54.608Z,99.90
2022-12-01T17:22:21.650Z,99.90
2022-12-01T17:24:48.763Z,99.90
2022-12-01T17:27:16.175Z,99.90
2022-12-01T17:29:46.060Z,99.90
2022-12-01T17:32:14.376Z,99.90
2022-12-01T17:34:41.355Z,99.90
2022-12-01T17:37:08.206Z,99.90
2022-12-01T17:39:35.039Z,99.90
2022-12-01T17:42:01.917Z,99.90
2022-12-01T17:44:28.912Z,99.90
2022-12-01T17:46:55.785Z,99.90
2022-12-01T17:49:22.780Z,99.90
2022-12-01T17:51:49.858Z,99.90
2022-12-01T17:54:16.739Z,99.90
2022-12-01T17:56:46.316Z,99.90
2022-12-01T17:59:13.221Z,99.90
2022-12-01T18:01:41.988Z,99.90
2022-12-01T18:04:09.100Z,99.90
2022-12-01T18:06:39.194Z,99.90
2022-12-01T18:09:06.376Z,99.90
2022-12-01T18:11:33.457Z,99.90
2022-12-01T18:14:01.041Z,99.90
2022-12-01T18:16:30.638Z,99.90
2022-12-01T18:18:59.137Z,99.90
2022-12-01T18:21:26.885Z,99.90
2022-12-01T18:23:56.333Z,99.90
2022-12-01T18:26:24.450Z,99.90
2022-12-01T18:28:56.316Z,99.90
2022-12-01T18:31:24.015Z,99.90
2022-12-01T18:33:51.192Z,99.90
2022-12-01T18:36:22.842Z,99.90
2022-12-01T18:38:51.058Z,99.90
2022-12-01T18:41:18.589Z,99.90
2022-12-01T18:43:45.790Z,99.90
2022-12-01T18:46:14.770Z,99.90
2022-12-01T18:48:46.810Z,99.90
2022-12-01T18:51:14.322Z,99.90
2022-12-01T18:53:41.656Z,99.90
2022-12-01T18:56:11.731Z,99.90
2022-12-01T18:58:39.720Z,99.90
2022-12-01T19:01:44.077Z,99.90
2022-12-01T19:04:11.730Z,99.90
2022-12-01T19:06:40.003Z,99.90
2022-12-01T19:09:09.158Z,99.90
2022-12-01T19:11:37.182Z,99.90
2022-12-01T19:14:04.493Z,99.90
2022-12-01T19:16:31.524Z,99.90
2022-12-01T19:18:58.805Z,99.90
2022-12-01T19:21:28.050Z,99.90
2022-12-01T19:23:57.664Z,99.90
2022-12-01T19:26:25.896Z,99.90
2022-12-01T19:28:53.023Z,99.90
2022-12-01T19:31:27.160Z,99.90
2022-12-01T19:33:55.072Z,99.90
2022-12-01T19:36:24.543Z,99.90
2022-12-01T19:38:52.026Z,99.90
2022-12-01T19:41:20.802Z,99.90
2022-12-01T19:43:48.398Z,99.90
2022-12-01T19:46:17.941Z,99.90
2022-12-01T19:48:46.452Z,99.90
2022-12-01T19:51:21.505Z,99.90
2022-12-01T19:53:48.565Z,99.90
2022-12-01T19:56:15.784Z,99.90
2022-12-01T19:58:42.814Z,99.90
2022-12-01T20:01:12.495Z,99.90
2022-12-01T20:03:42.881Z,99.90
2022-12-01T20:06:24.528Z,99.90
2022-12-01T20:08:52.204Z,99.90
2022-12-01T20:11:19.085Z,99.90
2022-12-01T20:13:47.097Z,99.90
2022-12-01T20:16:19.466Z,99.90
2022-12-01T20:18:47.047Z,99.90
2022-12-01T20:21:17.536Z,99.90
2022-12-01T20:23:46.926Z,99.90
2022-12-01T20:26:15.100Z,99.90
2022-12-01T20:28:42.213Z,99.90
2022-12-01T20:31:17.761Z,99.90
2022-12-01T20:33:44.906Z,99.90
2022-12-01T20:36:12.059Z,99.90
2022-12-01T20:38:39.278Z,99.90
2022-12-01T20:41:07.529Z,99.90
2022-12-01T20:43:35.017Z,99.90
2022-12-01T20:46:02.686Z,99.90
2022-12-01T20:48:30.008Z,99.90
2022-12-01T20:50:59.509Z,99.90
2022-12-01T20:53:26.462Z,99.90
2022-12-01T20:55:53.529Z,99.90
2022-12-01T20:58:20.514Z,99.90
2022-12-01T21:00:47.880Z,99.90
2022-12-01T21:03:15.402Z,99.90
2022-12-01T21:05:43.847Z,99.90
2022-12-01T21:08:12.818Z,99.90
2022-12-01T21:10:43.809Z,99.90
2022-12-01T21:13:41.699Z,99.90
2022-12-01T21:16:16.759Z,99.90
2022-12-01T21:19:01.794Z,99.90
2022-12-01T21:21:31.292Z,99.90
2022-12-01T21:24:10.405Z,99.90
2022-12-01T21:26:39.379Z,99.90
2022-12-01T21:29:21.548Z,99.90
2022-12-01T21:31:51.202Z,99.90
2022-12-01T21:34:23.773Z,99.90
2022-12-01T21:36:53.051Z,99.90
2022-12-01T21:39:23.756Z,99.90
2022-12-01T21:41:53.771Z,99.90
2022-12-01T21:44:22.365Z,99.90
2022-12-01T21:46:55.664Z,99.90
2022-12-01T21:49:33.117Z,99.90
2022-12-01T21:52:00.073Z,99.90
2022-12-01T21:54:29.235Z,99.90
2022-12-01T21:56:58.266Z,99.90
2022-12-01T21:59:25.300Z,99.90
2022-12-01T22:01:56.927Z,99.90
2022-12-01T22:04:31.260Z,99.90
2022-12-01T22:06:58.395Z,99.90
2022-12-01T22:09:29.388Z,99.90
2022-12-01T22:12:21.760Z,99.90
2022-12-01T22:14:48.993Z,99.90
2022-12-01T22:17:20.533Z,99.90
2022-12-01T22:19:55.070Z,99.90
2022-12-01T22:22:21.821Z,99.90
2022-12-01T22:24:50.764Z,99.90
2022-12-01T22:27:35.162Z,99.90
2022-12-01T22:30:08.151Z,99.90
2022-12-01T22:33:05.224Z,99.90
2022-12-01T22:35:46.004Z,99.90
2022-12-01T22:38:24.662Z,99.90
2022-12-01T22:41:05.140Z,99.90
2022-12-01T22:43:45.476Z,99.90
2022-12-01T22:46:35.249Z,99.90
2022-12-01T22:49:22.045Z,99.90
2022-12-01T22:51:50.044Z,99.90
2022-12-01T22:54:16.811Z,99.90
2022-12-01T22:57:05.204Z,99.90
2022-12-01T22:59:35.557Z,99.90
2022-12-01T23:02:20.514Z,99.90
2022-12-01T23:04:49.056Z,99.90
2022-12-01T23:07:36.959Z,99.90
2022-12-01T23:10:06.914Z,99.90
2022-12-01T23:12:35.867Z,99.90
2022-12-01T23:15:35.197Z,99.90
2022-12-01T23:18:22.262Z,99.90
2022-12-01T23:21:00.120Z,99.90
2022-12-01T23:23:33.187Z,99.90
2022-12-01T23:26:03.527Z,99.90
2022-12-01T23:28:31.337Z,99.90
2022-12-01T23:30:59.533Z,99.90
2022-12-01T23:33:32.406Z,99.90
2022-12-01T23:36:11.066Z,99.90
2022-12-01T23:38:41.033Z,99.90
2022-12-01T23:41:13.887Z,99.90
2022-12-01T23:43:44.116Z,99.90
2022-12-01T23:46:26.981Z,99.90
2022-12-01T23:48:59.195Z,99.90
2022-12-01T23:51:43.558Z,99.90
2022-12-01T23:54:34.668Z,99.90
2022-12-01T23:57:16.944Z,99.90
2022-12-01T23:59:44.785Z,99.90
